createdAt,value
2023-04-08T00:01:19.446Z,82.40
2023-04-08T00:03:46.643Z,82.30
2023-04-08T00:06:13.761Z,82.30
2023-04-08T00:08:41.059Z,82.30
2023-04-08T00:11:08.377Z,82.30
2023-04-08T00:13:35.342Z,82.30
2023-04-08T00:16:03.037Z,82.30
2023-04-08T00:18:29.959Z,82.40
2023-04-08T00:20:57.325Z,82.50
2023-04-08T00:23:24.339Z,82.50
2023-04-08T00:25:52.222Z,82.60
2023-04-08T00:28:19.165Z,82.60
2023-04-08T00:30:46.341Z,82.70
2023-04-08T00:33:13.428Z,82.70
2023-04-08T00:35:40.396Z,82.70
2023-04-08T00:38:08.169Z,82.80
2023-04-08T00:40:35.708Z,82.80
2023-04-08T00:43:02.969Z,82.70
2023-04-08T00:45:30.432Z,82.70
2023-04-08T00:47:57.429Z,82.80
2023-04-08T00:50:24.660Z,82.80
2023-04-08T00:52:51.719Z,82.80
2023-04-08T00:55:18.517Z,82.80
2023-04-08T00:57:46.684Z,82.90
2023-04-08T01:00:15.198Z,82.90
2023-04-08T01:03:08.618Z,82.90
2023-04-08T01:06:11.520Z,83.00
2023-04-08T01:08:42.028Z,83.10
2023-04-08T01:11:12.427Z,82.80
2023-04-08T01:13:42.423Z,82.90
2023-04-08T01:16:13.665Z,83.00
2023-04-08T01:18:44.082Z,83.00
2023-04-08T01:21:13.295Z,83.00
2023-04-08T01:24:07.085Z,83.10
2023-04-08T01:26:35.696Z,83.20
2023-04-08T01:29:03.488Z,83.10
2023-04-08T01:31:31.753Z,83.10
2023-04-08T01:34:01.280Z,83.20
2023-04-08T01:36:29.731Z,83.20
2023-04-08T01:38:57.550Z,83.20
2023-04-08T01:41:24.859Z,83.20
2023-04-08T01:43:52.935Z,83.20
2023-04-08T01:46:21.902Z,83.20
2023-04-08T01:48:50.097Z,83.30
2023-04-08T01:51:18.146Z,83.20
2023-04-08T01:53:45.427Z,83.20
2023-04-08T01:56:14.358Z,83.20
2023-04-08T01:58:53.557Z,83.20
2023-04-08T02:01:26.098Z,83.40
2023-04-08T02:03:57.328Z,83.20
2023-04-08T02:06:27.626Z,83.30
2023-04-08T02:08:55.717Z,83.30
2023-04-08T02:11:22.843Z,83.30
2023-04-08T02:13:51.471Z,83.30
2023-04-08T02:16:36.897Z,83.30
2023-04-08T02:19:20.762Z,83.50
2023-04-08T02:21:56.578Z,83.50
2023-04-08T02:24:24.139Z,83.40
2023-04-08T02:26:52.151Z,83.40
2023-04-08T02:29:19.745Z,83.30
2023-04-08T02:31:49.328Z,83.30
2023-04-08T02:34:17.888Z,83.30
2023-04-08T02:36:47.279Z,83.30
2023-04-08T02:39:14.660Z,83.30
2023-04-08T02:41:41.748Z,83.30
2023-04-08T02:44:10.048Z,83.40
2023-04-08T02:46:40.791Z,83.40
2023-04-08T02:49:07.822Z,83.50
2023-04-08T02:51:34.903Z,83.50
2023-04-08T02:54:01.808Z,83.70
2023-04-08T02:56:28.836Z,83.70
2023-04-08T02:58:56.247Z,83.80
2023-04-08T03:01:23.208Z,83.90
2023-04-08T03:03:50.469Z,83.90
2023-04-08T03:06:17.562Z,83.90
2023-04-08T03:08:44.875Z,83.90
2023-04-08T03:11:12.160Z,83.90
2023-04-08T03:13:39.208Z,84.00
2023-04-08T03:16:06.889Z,84.00
2023-04-08T03:18:34.059Z,84.00
2023-04-08T03:21:03.370Z,84.10
2023-04-08T03:23:30.255Z,84.00
2023-04-08T03:25:57.267Z,84.00
2023-04-08T03:28:24.360Z,84.10
2023-04-08T03:30:51.360Z,84.00
2023-04-08T03:33:18.403Z,84.00
2023-04-08T03:35:45.366Z,84.10
2023-04-08T03:38:12.487Z,84.10
2023-04-08T03:40:39.483Z,84.10
2023-04-08T03:43:08.662Z,84.30
2023-04-08T03:45:35.858Z,84.30
2023-04-08T03:48:03.228Z,84.30
2023-04-08T03:50:30.407Z,84.40
2023-04-08T03:52:57.438Z,85.20
2023-04-08T03:55:24.296Z,84.40
2023-04-08T03:57:51.190Z,84.40
2023-04-08T04:00:18.151Z,84.40
2023-04-08T04:02:45.358Z,84.40
2023-04-08T04:05:12.245Z,84.40
2023-04-08T04:07:39.340Z,84.40
2023-04-08T04:10:07.039Z,84.50
2023-04-08T04:12:34.066Z,84.50
2023-04-08T04:15:01.335Z,84.50
2023-04-08T04:17:28.281Z,84.50
2023-04-08T04:19:55.396Z,84.50
2023-04-08T04:22:22.404Z,84.50
2023-04-08T04:24:49.821Z,84.50
2023-04-08T04:27:18.288Z,84.50
2023-04-08T04:29:45.215Z,84.50
2023-04-08T04:32:12.329Z,84.50
2023-04-08T04:34:39.291Z,84.50
2023-04-08T04:37:06.269Z,84.60
2023-04-08T04:39:33.198Z,84.60
2023-04-08T04:42:00.269Z,84.60
2023-04-08T04:44:27.387Z,84.70
2023-04-08T04:46:54.414Z,84.70
2023-04-08T04:49:21.578Z,84.70
2023-04-08T04:51:49.186Z,84.70
2023-04-08T04:54:16.050Z,84.80
2023-04-08T04:56:42.936Z,84.90
2023-04-08T04:59:09.805Z,84.90
2023-04-08T05:01:36.921Z,84.90
2023-04-08T05:04:03.866Z,84.90
2023-04-08T05:06:30.863Z,85.00
2023-04-08T05:08:57.726Z,85.00
2023-04-08T05:11:24.794Z,85.10
2023-04-08T05:13:51.753Z,85.00
2023-04-08T05:16:18.757Z,85.00
2023-04-08T05:18:45.802Z,85.00
2023-04-08T05:21:12.830Z,85.00
2023-04-08T05:23:39.783Z,84.90
2023-04-08T05:26:09.948Z,84.90
2023-04-08T05:28:37.175Z,85.10
2023-04-08T05:31:04.494Z,85.30
2023-04-08T05:33:31.531Z,85.10
2023-04-08T05:35:58.580Z,85.10
2023-04-08T05:38:25.770Z,85.10
2023-04-08T05:40:52.883Z,85.10
2023-04-08T05:43:19.864Z,85.00
2023-04-08T05:45:47.159Z,85.00
2023-04-08T05:48:14.246Z,85.00
2023-04-08T05:50:41.370Z,85.00
2023-04-08T05:53:08.276Z,85.00
2023-04-08T05:55:35.148Z,85.00
2023-04-08T05:58:02.215Z,84.90
2023-04-08T06:00:29.215Z,84.90
2023-04-08T06:02:56.790Z,85.00
2023-04-08T06:05:24.182Z,85.00
2023-04-08T06:07:51.103Z,84.90
2023-04-08T06:10:18.171Z,84.90
2023-04-08T06:12:45.521Z,84.90
2023-04-08T06:15:12.493Z,84.60
2023-04-08T06:17:39.900Z,84.40
2023-04-08T06:20:09.128Z,84.30
2023-04-08T06:22:36.816Z,84.20
2023-04-08T06:25:04.420Z,84.10
2023-04-08T06:27:31.385Z,83.90
2023-04-08T06:29:58.359Z,83.90
2023-04-08T06:32:25.413Z,83.90
2023-04-08T06:34:52.313Z,83.70
2023-04-08T06:37:19.216Z,83.30
2023-04-08T06:40:51.179Z,83.10
2023-04-08T06:43:18.110Z,83.00
2023-04-08T06:45:45.155Z,82.90
2023-04-08T06:48:12.234Z,82.70
2023-04-08T06:50:39.036Z,82.50
2023-04-08T06:53:06.213Z,82.40
2023-04-08T06:55:33.052Z,82.20
2023-04-08T06:58:01.918Z,82.10
2023-04-08T07:00:28.876Z,81.90
2023-04-08T07:02:55.934Z,81.80
2023-04-08T07:05:22.924Z,81.50
2023-04-08T07:07:49.973Z,81.30
2023-04-08T07:10:16.889Z,81.10
2023-04-08T07:12:43.893Z,80.80
2023-04-08T07:15:11.259Z,80.30
2023-04-08T07:17:39.631Z,79.90
2023-04-08T07:20:07.898Z,79.50
2023-04-08T07:22:35.170Z,79.00
2023-04-08T07:25:02.980Z,78.50
2023-04-08T07:27:30.063Z,78.30
2023-04-08T07:29:57.944Z,78.00
2023-04-08T07:32:25.207Z,77.70
2023-04-08T07:34:52.221Z,77.20
2023-04-08T07:37:19.164Z,76.80
2023-04-08T07:39:46.267Z,76.60
2023-04-08T07:42:13.275Z,76.40
2023-04-08T07:44:40.397Z,76.30
2023-04-08T07:47:07.408Z,76.40
2023-04-08T07:49:34.507Z,76.60
2023-04-08T07:52:01.496Z,76.80
2023-04-08T07:54:28.647Z,76.50
2023-04-08T07:56:55.730Z,76.20
2023-04-08T07:59:22.802Z,75.90
2023-04-08T08:01:49.798Z,75.70
2023-04-08T08:04:16.994Z,75.50
2023-04-08T08:06:44.473Z,75.50
2023-04-08T08:09:11.337Z,75.30
2023-04-08T08:11:38.538Z,75.10
2023-04-08T08:14:06.026Z,74.70
2023-04-08T08:16:33.640Z,74.30
2023-04-08T08:19:01.221Z,74.20
2023-04-08T08:21:28.278Z,74.10
2023-04-08T08:23:55.416Z,73.80
2023-04-08T08:26:23.012Z,73.60
2023-04-08T08:28:50.044Z,73.30
2023-04-08T08:31:17.064Z,73.20
2023-04-08T08:33:44.191Z,73.00
2023-04-08T08:36:11.151Z,73.00
2023-04-08T08:38:38.198Z,73.10
2023-04-08T08:41:05.395Z,73.20
2023-04-08T08:43:33.576Z,73.10
2023-04-08T08:46:00.728Z,72.90
2023-04-08T08:48:27.874Z,72.70
2023-04-08T08:50:55.024Z,72.70
2023-04-08T08:53:23.154Z,72.50
2023-04-08T08:56:16.305Z,72.10
2023-04-08T08:58:38.589Z,71.60
2023-04-08T09:01:37.350Z,71.20
2023-04-08T09:04:18.578Z,70.50
2023-04-08T09:06:51.546Z,70.30
2023-04-08T09:09:18.679Z,70.30
2023-04-08T09:11:47.480Z,70.30
2023-04-08T09:14:22.735Z,70.60
2023-04-08T09:16:50.996Z,70.50
2023-04-08T09:19:18.872Z,70.50
2023-04-08T09:21:46.092Z,70.40
2023-04-08T09:24:30.380Z,70.10
2023-04-08T09:26:57.593Z,69.80
2023-04-08T09:29:28.150Z,70.00
2023-04-08T09:31:59.460Z,70.10
2023-04-08T09:34:29.020Z,70.00
2023-04-08T09:36:56.375Z,70.10
2023-04-08T09:39:23.906Z,70.20
2023-04-08T09:41:52.639Z,70.20
2023-04-08T09:44:26.613Z,70.20
2023-04-08T09:47:09.005Z,70.40
2023-04-08T09:49:47.790Z,70.60
2023-04-08T09:52:24.091Z,70.50
2023-04-08T09:55:06.805Z,70.50
2023-04-08T09:57:47.857Z,70.10
2023-04-08T10:00:17.311Z,69.10
2023-04-08T10:03:34.407Z,69.00
2023-04-08T10:06:03.552Z,68.00
2023-04-08T10:08:32.945Z,67.90
2023-04-08T10:11:00.432Z,67.10
2023-04-08T10:13:28.600Z,66.50
2023-04-08T10:16:31.847Z,66.10
2023-04-08T10:18:59.733Z,64.90
2023-04-08T10:21:37.118Z,65.60
2023-04-08T10:24:11.013Z,64.10
2023-04-08T10:26:40.680Z,63.60
2023-04-08T10:29:21.233Z,62.40
2023-04-08T10:31:50.895Z,61.40
2023-04-08T10:34:22.756Z,61.10
2023-04-08T10:36:49.964Z,60.70
2023-04-08T10:39:17.573Z,60.30
2023-04-08T10:41:49.627Z,59.80
2023-04-08T10:44:27.557Z,59.20
2023-04-08T10:46:55.842Z,58.80
2023-04-08T10:49:22.915Z,58.70
2023-04-08T10:51:50.120Z,58.60
2023-04-08T10:54:18.878Z,58.60
2023-04-08T10:56:52.394Z,58.60
2023-04-08T10:59:32.883Z,58.80
2023-04-08T11:02:01.658Z,58.60
2023-04-08T11:04:29.147Z,58.80
2023-04-08T11:06:56.872Z,58.60
2023-04-08T11:09:24.306Z,58.40
2023-04-08T11:11:54.909Z,58.40
2023-04-08T11:14:24.161Z,58.30
2023-04-08T11:16:54.149Z,58.40
2023-04-08T11:19:21.839Z,58.50
2023-04-08T11:21:51.786Z,58.80
2023-04-08T11:24:19.731Z,59.00
2023-04-08T11:26:47.269Z,59.20
2023-04-08T11:29:15.953Z,59.00
2023-04-08T11:31:44.543Z,58.50
2023-04-08T11:34:12.238Z,58.50
2023-04-08T11:36:41.568Z,58.60
2023-04-08T11:39:12.404Z,59.20
2023-04-08T11:41:40.395Z,58.30
2023-04-08T11:44:08.086Z,58.10
2023-04-08T11:46:36.538Z,58.10
2023-04-08T11:49:09.966Z,57.90
2023-04-08T11:51:56.385Z,57.50
2023-04-08T11:54:32.204Z,57.10
2023-04-08T11:56:59.891Z,58.20
2023-04-08T11:59:29.373Z,59.70
2023-04-08T12:01:57.060Z,60.00
2023-04-08T12:04:24.579Z,58.50
2023-04-08T12:06:52.254Z,58.00
2023-04-08T12:09:19.511Z,55.40
2023-04-08T12:11:46.750Z,52.80
2023-04-08T12:14:14.657Z,50.80
2023-04-08T12:16:42.041Z,48.80
2023-04-08T12:19:09.184Z,48.00
2023-04-08T12:21:36.235Z,46.30
2023-04-08T12:24:03.475Z,45.50
2023-04-08T12:26:30.600Z,44.10
2023-04-08T12:28:57.796Z,42.50
2023-04-08T12:31:25.083Z,41.20
2023-04-08T12:33:52.420Z,40.80
2023-04-08T12:36:19.476Z,39.70
2023-04-08T12:38:47.010Z,39.10
2023-04-08T12:41:15.469Z,38.40
2023-04-08T12:43:42.764Z,38.20
2023-04-08T12:46:09.795Z,37.80
2023-04-08T12:48:36.879Z,37.70
2023-04-08T12:52:24.653Z,38.00
2023-04-08T12:54:51.698Z,37.40
2023-04-08T12:57:18.874Z,38.70
2023-04-08T12:59:45.809Z,38.50
2023-04-08T13:02:12.782Z,38.00
2023-04-08T13:04:39.801Z,37.60
2023-04-08T13:07:07.680Z,37.80
2023-04-08T13:09:34.805Z,37.90
2023-04-08T13:12:02.141Z,38.10
2023-04-08T13:14:29.187Z,38.30
2023-04-08T13:16:56.143Z,38.80
2023-04-08T13:19:23.256Z,37.80
2023-04-08T13:21:50.224Z,38.40
2023-04-08T13:24:18.155Z,38.30
2023-04-08T13:26:45.368Z,37.70
2023-04-08T13:29:12.485Z,36.80
2023-04-08T13:31:39.725Z,36.00
2023-04-08T13:34:06.711Z,35.90
2023-04-08T13:36:33.674Z,35.40
2023-04-08T13:39:00.644Z,35.00
2023-04-08T13:41:28.468Z,34.50
2023-04-08T13:43:56.666Z,34.50
2023-04-08T13:46:23.938Z,34.60
2023-04-08T13:48:51.382Z,34.30
2023-04-08T13:51:18.718Z,33.90
2023-04-08T13:53:45.752Z,34.20
2023-04-08T13:56:12.801Z,34.20
2023-04-08T13:58:39.907Z,35.10
2023-04-08T14:01:07.073Z,35.70
2023-04-08T14:03:34.056Z,36.20
2023-04-08T14:06:02.079Z,35.70
2023-04-08T14:08:29.118Z,34.80
2023-04-08T14:10:57.251Z,34.90
2023-04-08T14:13:24.183Z,34.10
2023-04-08T14:15:53.722Z,33.90
2023-04-08T14:18:21.285Z,33.30
2023-04-08T14:20:48.452Z,32.80
2023-04-08T14:23:16.949Z,31.70
2023-04-08T14:25:44.270Z,31.70
2023-04-08T14:28:11.496Z,31.40
2023-04-08T14:30:38.520Z,31.00
2023-04-08T14:33:06.277Z,30.20
2023-04-08T14:35:33.370Z,29.90
2023-04-08T14:38:00.791Z,29.30
2023-04-08T14:40:27.883Z,28.60
2023-04-08T14:42:55.080Z,27.90
2023-04-08T14:45:22.259Z,27.50
2023-04-08T14:47:49.656Z,27.50
2023-04-08T14:50:16.944Z,27.60
2023-04-08T14:52:45.221Z,27.60
2023-04-08T14:55:12.632Z,27.70
2023-04-08T14:57:39.648Z,28.10
2023-04-08T15:00:07.764Z,28.00
2023-04-08T15:02:34.951Z,28.00
2023-04-08T15:05:02.017Z,28.10
2023-04-08T15:07:29.047Z,28.20
2023-04-08T15:09:56.886Z,28.40
2023-04-08T15:12:24.522Z,28.30
2023-04-08T15:14:51.771Z,27.80
2023-04-08T15:17:18.906Z,27.70
2023-04-08T15:19:46.795Z,27.50
2023-04-08T15:22:14.167Z,27.70
2023-04-08T15:24:42.538Z,28.00
2023-04-08T15:27:09.607Z,28.30
2023-04-08T15:29:36.764Z,28.20
2023-04-08T15:32:03.797Z,28.10
2023-04-08T15:34:30.948Z,28.10
2023-04-08T15:36:58.376Z,27.90
2023-04-08T15:39:26.198Z,27.80
2023-04-08T15:41:53.470Z,27.50
2023-04-08T15:44:20.533Z,27.40
2023-04-08T15:46:47.653Z,27.40
2023-04-08T15:49:14.993Z,27.70
2023-04-08T15:51:44.519Z,27.80
2023-04-08T15:54:11.841Z,28.20
2023-04-08T15:56:38.822Z,28.60
2023-04-08T15:59:05.882Z,29.20
2023-04-08T16:01:33.227Z,29.30
2023-04-08T16:04:00.830Z,29.50
2023-04-08T16:06:28.119Z,29.60
2023-04-08T16:08:55.758Z,29.90
2023-04-08T16:11:23.727Z,30.10
2023-04-08T16:13:51.016Z,30.40
2023-04-08T16:16:18.084Z,30.80
2023-04-08T16:18:46.937Z,31.00
2023-04-08T16:21:14.591Z,31.40
2023-04-08T16:23:42.026Z,31.80
2023-04-08T16:26:08.989Z,32.40
2023-04-08T16:28:37.071Z,32.90
2023-04-08T16:31:04.337Z,33.50
2023-04-08T16:33:32.155Z,33.90
2023-04-08T16:36:04.165Z,34.30
2023-04-08T16:38:31.390Z,34.70
2023-04-08T16:40:59.225Z,35.10
2023-04-08T16:43:26.412Z,35.40
2023-04-08T16:45:54.029Z,35.90
2023-04-08T16:48:21.088Z,36.50
2023-04-08T16:50:47.958Z,37.40
2023-04-08T16:53:14.920Z,38.10
2023-04-08T16:55:41.811Z,38.80
2023-04-08T16:58:08.899Z,39.60
2023-04-08T17:00:36.385Z,40.20
2023-04-08T17:03:03.751Z,40.80
2023-04-08T17:05:31.014Z,41.60
2023-04-08T17:07:58.027Z,42.00
2023-04-08T17:10:25.343Z,42.80
2023-04-08T17:12:53.084Z,43.20
2023-04-08T17:15:20.015Z,43.70
2023-04-08T17:17:48.081Z,44.20
2023-04-08T17:20:15.835Z,44.80
2023-04-08T17:22:43.117Z,45.20
2023-04-08T17:25:11.544Z,45.80
2023-04-08T17:27:38.675Z,46.30
2023-04-08T17:30:06.414Z,46.60
2023-04-08T17:32:34.209Z,47.10
2023-04-08T17:35:02.186Z,47.40
2023-04-08T17:37:29.227Z,47.80
2023-04-08T17:39:56.601Z,48.30
2023-04-08T17:42:24.421Z,48.80
2023-04-08T17:44:51.361Z,49.10
2023-04-08T17:47:18.417Z,49.40
2023-04-08T17:49:45.319Z,49.80
2023-04-08T17:52:13.208Z,50.10
2023-04-08T17:54:41.543Z,50.60
2023-04-08T17:57:08.421Z,50.70
2023-04-08T17:59:35.529Z,51.60
2023-04-08T18:02:02.963Z,51.10
2023-04-08T18:04:30.661Z,51.40
2023-04-08T18:06:57.966Z,51.70
2023-04-08T18:09:24.967Z,52.20
2023-04-08T18:11:51.996Z,52.20
2023-04-08T18:14:19.090Z,52.40
2023-04-08T18:16:46.007Z,52.80
2023-04-08T18:19:13.538Z,53.20
2023-04-08T18:21:40.715Z,53.20
2023-04-08T18:24:09.212Z,53.50
2023-04-08T18:26:37.079Z,53.80
2023-04-08T18:29:04.205Z,53.90
2023-04-08T18:31:31.274Z,53.90
2023-04-08T18:33:58.279Z,54.30
2023-04-08T18:36:26.655Z,54.50
2023-04-08T18:38:53.658Z,54.70
2023-04-08T18:41:20.996Z,54.80
2023-04-08T18:43:48.144Z,55.20
2023-04-08T18:46:15.378Z,55.50
2023-04-08T18:48:42.461Z,55.80
2023-04-08T18:51:09.448Z,56.00
2023-04-08T18:53:36.525Z,56.00
2023-04-08T18:56:03.608Z,56.30
2023-04-08T18:58:31.930Z,56.40
2023-04-08T19:00:59.089Z,56.30
2023-04-08T19:03:27.098Z,56.60
2023-04-08T19:05:54.194Z,56.40
2023-04-08T19:08:21.104Z,56.50
2023-04-08T19:10:48.245Z,56.50
2023-04-08T19:13:15.498Z,56.60
2023-04-08T19:15:43.036Z,56.70
2023-04-08T19:18:10.219Z,56.90
2023-04-08T19:20:37.791Z,56.90
2023-04-08T19:23:05.972Z,56.90
2023-04-08T19:25:33.709Z,57.00
2023-04-08T19:28:00.733Z,57.10
2023-04-08T19:30:27.711Z,57.00
2023-04-08T19:32:55.120Z,56.90
2023-04-08T19:35:22.415Z,57.00
2023-04-08T19:37:49.747Z,56.90
2023-04-08T19:40:16.962Z,56.90
2023-04-08T19:42:44.673Z,56.80
2023-04-08T19:45:12.269Z,56.80
2023-04-08T19:47:43.297Z,56.60
2023-04-08T19:50:13.225Z,56.50
2023-04-08T19:52:40.413Z,56.40
2023-04-08T19:55:10.217Z,56.50
2023-04-08T19:57:37.404Z,55.90
2023-04-08T20:00:04.766Z,56.00
2023-04-08T20:02:33.616Z,55.80
2023-04-08T20:05:01.979Z,55.90
2023-04-08T20:07:29.083Z,56.00
2023-04-08T20:09:56.079Z,55.90
2023-04-08T20:12:23.408Z,55.80
2023-04-08T20:14:50.502Z,55.70
2023-04-08T20:17:17.891Z,55.60
2023-04-08T20:19:46.417Z,55.60
2023-04-08T20:22:13.347Z,55.70
2023-04-08T20:24:40.394Z,55.80
2023-04-08T20:27:07.468Z,55.80
2023-04-08T20:29:34.813Z,55.90
2023-04-08T20:32:01.883Z,55.90
2023-04-08T20:34:28.954Z,55.80
2023-04-08T20:36:56.322Z,55.90
2023-04-08T20:39:31.391Z,56.10
2023-04-08T20:41:58.965Z,56.20
2023-04-08T20:44:27.950Z,56.20
2023-04-08T20:46:54.914Z,56.30
2023-04-08T20:49:22.147Z,56.40
2023-04-08T20:51:49.500Z,56.50
2023-04-08T20:54:17.832Z,56.70
2023-04-08T20:56:45.751Z,56.80
2023-04-08T20:59:12.810Z,56.90
2023-04-08T21:01:39.894Z,56.80
2023-04-08T21:04:09.798Z,56.90
2023-04-08T21:06:37.549Z,57.00
2023-04-08T21:09:04.629Z,57.10
2023-04-08T21:11:31.701Z,57.20
2023-04-08T21:13:58.673Z,57.90
2023-04-08T21:16:25.560Z,57.40
2023-04-08T21:18:52.769Z,57.50
2023-04-08T21:21:20.280Z,57.60
2023-04-08T21:23:47.531Z,57.60
2023-04-08T21:26:14.845Z,57.70
2023-04-08T21:28:41.903Z,57.70
2023-04-08T21:31:13.231Z,57.70
2023-04-08T21:33:40.750Z,57.90
2023-04-08T21:36:07.997Z,57.90
2023-04-08T21:38:35.341Z,58.10
2023-04-08T21:41:02.434Z,58.00
2023-04-08T21:43:29.503Z,58.60
2023-04-08T21:45:56.920Z,58.10
2023-04-08T21:48:24.173Z,58.10
2023-04-08T21:50:51.042Z,58.10
2023-04-08T21:53:18.102Z,58.10
2023-04-08T21:55:45.323Z,58.10
2023-04-08T21:58:12.672Z,58.10
2023-04-08T22:00:39.914Z,58.30
2023-04-08T22:03:07.586Z,58.30
2023-04-08T22:05:35.454Z,58.40
2023-04-08T22:08:02.643Z,58.50
2023-04-08T22:10:29.900Z,58.60
2023-04-08T22:12:56.815Z,58.60
2023-04-08T22:15:24.137Z,58.60
2023-04-08T22:17:51.526Z,58.60
2023-04-08T22:20:18.855Z,58.70
2023-04-08T22:22:45.869Z,58.90
2023-04-08T22:25:13.250Z,59.00
2023-04-08T22:27:40.293Z,59.10
2023-04-08T22:30:08.163Z,59.20
2023-04-08T22:32:35.248Z,59.50
2023-04-08T22:35:02.584Z,59.70
2023-04-08T22:37:29.677Z,60.00
2023-04-08T22:40:01.625Z,60.30
2023-04-08T22:42:28.996Z,60.80
2023-04-08T22:44:56.204Z,60.90
2023-04-08T22:47:23.290Z,61.20
2023-04-08T22:49:50.434Z,61.50
2023-04-08T22:52:17.893Z,61.90
2023-04-08T22:54:44.922Z,62.20
2023-04-08T22:57:11.971Z,62.50
2023-04-08T22:59:38.927Z,62.80
2023-04-08T23:02:08.394Z,63.10
2023-04-08T23:04:35.596Z,63.30
2023-04-08T23:07:02.573Z,63.70
2023-04-08T23:09:29.601Z,64.00
2023-04-08T23:11:57.418Z,64.30
2023-04-08T23:14:24.789Z,64.70
2023-04-08T23:16:51.842Z,65.00
2023-04-08T23:19:18.929Z,65.40
2023-04-08T23:21:46.046Z,65.60
2023-04-08T23:24:12.920Z,65.90
2023-04-08T23:26:40.624Z,66.20
2023-04-08T23:29:07.618Z,66.40
2023-04-08T23:31:34.950Z,66.80
2023-04-08T23:34:02.064Z,67.00
2023-04-08T23:36:28.977Z,67.30
2023-04-08T23:38:56.151Z,67.60
2023-04-08T23:41:23.050Z,68.00
2023-04-08T23:43:50.225Z,68.40
2023-04-08T23:46:17.251Z,68.80
2023-04-08T23:48:44.260Z,69.10
2023-04-08T23:51:11.865Z,69.50
2023-04-08T23:53:38.938Z,69.70
2023-04-08T23:56:07.613Z,70.00
2023-04-08T23:58:35.290Z,70.20
